Time;durP1;ratioP1;P1;durP2;ratioP2;P2;SDS_P1;SDS_P2;PMS_P1;PMS_P2;Temp;Humidity;BMP_temperature;BMP_pressure;BME280_temperature;BME280_humidity;BME280_pressure;Samples;Min_cycle;Max_cycle;Signal;HPM_P1;HPM_P2
2022/01/05 00:00:22;;;;;;;8.65;2.85;;;4.00;79.50;;;;;;5032292;28;20057;-89
2022/01/05 00:02:48;;;;;;;11.23;2.75;;;4.00;79.50;;;;;;5033415;28;20041;-89
2022/01/05 00:05:16;;;;;;;13.60;3.05;;;4.00;79.50;;;;;;5033369;28;20567;-89
2022/01/05 00:07:44;;;;;;;13.52;2.88;;;4.00;79.50;;;;;;5033724;28;20041;-87
2022/01/05 00:10:12;;;;;;;10.60;2.65;;;4.00;79.40;;;;;;5033401;28;20071;-88
2022/01/05 00:12:39;;;;;;;9.23;2.55;;;4.00;79.40;;;;;;5032824;28;20092;-88
2022/01/05 00:15:07;;;;;;;10.55;2.20;;;3.90;79.40;;;;;;5032810;28;20051;-89
2022/01/05 00:17:34;;;;;;;9.52;2.55;;;3.90;79.40;;;;;;5033412;28;20059;-89
2022/01/05 00:20:03;;;;;;;14.93;2.78;;;3.90;79.40;;;;;;5033394;28;20045;-89
2022/01/05 00:22:30;;;;;;;9.70;2.50;;;3.90;79.30;;;;;;5033720;28;20048;-89
2022/01/05 00:24:57;;;;;;;11.45;2.88;;;3.90;79.30;;;;;;5033499;28;20057;-89
2022/01/05 00:27:24;;;;;;;9.07;2.88;;;3.90;79.30;;;;;;5032963;28;20045;-88
2022/01/05 00:29:52;;;;;;;15.77;3.35;;;3.90;79.30;;;;;;5032992;28;20413;-89
2022/01/05 00:32:19;;;;;;;14.25;3.40;;;3.90;79.20;;;;;;5032368;28;20049;-90
2022/01/05 00:34:46;;;;;;;11.77;2.83;;;3.90;79.20;;;;;;5033503;28;20042;-89
2022/01/05 00:37:13;;;;;;;15.68;3.28;;;3.90;79.10;;;;;;5033720;28;20152;-90
2022/01/05 00:39:40;;;;;;;15.02;3.03;;;3.90;79.10;;;;;;5032841;28;20049;-90
2022/01/05 00:42:07;;;;;;;15.45;3.28;;;3.80;79.10;;;;;;5032872;28;20061;-91
2022/01/05 00:44:34;;;;;;;10.93;2.70;;;3.80;79.00;;;;;;5033351;28;20042;-90
2022/01/05 00:47:02;;;;;;;16.25;2.78;;;3.80;79.00;;;;;;5033330;28;20056;-90
2022/01/05 00:49:29;;;;;;;15.38;3.65;;;3.80;79.00;;;;;;5034497;28;20041;-91
2022/01/05 00:51:56;;;;;;;14.82;3.00;;;3.80;78.90;;;;;;5033375;28;20050;-90
2022/01/05 00:54:23;;;;;;;11.07;2.92;;;3.70;78.90;;;;;;5032667;28;20041;-90
2022/01/05 00:56:50;;;;;;;13.13;2.75;;;3.80;78.90;;;;;;5034676;28;20046;-90
2022/01/05 00:59:17;;;;;;;12.90;3.05;;;3.70;78.80;;;;;;5036312;28;20059;-89
2022/01/05 01:01:44;;;;;;;12.35;3.03;;;3.70;78.80;;;;;;5037461;28;20076;-90
2022/01/05 01:04:11;;;;;;;14.38;2.90;;;3.70;78.80;;;;;;5037720;28;20045;-91
2022/01/05 01:06:39;;;;;;;11.48;2.83;;;3.70;78.80;;;;;;5036552;28;20053;-89
2022/01/05 01:09:06;;;;;;;11.20;2.58;;;3.70;78.80;;;;;;5037236;28;20509;-89
2022/01/05 01:11:33;;;;;;;13.30;3.20;;;3.70;78.80;;;;;;5036807;28;20517;-91
2022/01/05 01:14:00;;;;;;;16.13;3.25;;;3.60;78.70;;;;;;5037535;28;20051;-91
2022/01/05 01:16:27;;;;;;;10.55;3.05;;;3.60;78.70;;;;;;5039023;28;20041;-90
2022/01/05 01:18:54;;;;;;;13.73;3.20;;;3.70;78.70;;;;;;5037280;28;20068;-88
2022/01/05 01:21:21;;;;;;;16.02;3.72;;;3.70;78.70;;;;;;5036502;28;20049;-90
2022/01/05 01:23:55;;;;;;;10.55;2.90;;;3.60;78.60;;;;;;5039318;28;20049;-90
2022/01/05 01:26:24;;;;;;;13.90;3.17;;;3.60;78.60;;;;;;5037143;28;20071;-90
2022/01/05 01:28:52;;;;;;;10.35;2.78;;;3.60;78.60;;;;;;5036584;28;20042;-92
2022/01/05 01:31:19;;;;;;;11.93;2.85;;;3.50;78.50;;;;;;5037365;28;20045;-92
2022/01/05 01:33:47;;;;;;;11.73;3.30;;;3.60;78.50;;;;;;5037452;28;20081;-93
2022/01/05 01:36:14;;;;;;;19.02;3.55;;;3.60;78.50;;;;;;5036606;28;20053;-92
2022/01/05 01:38:42;;;;;;;14.65;2.95;;;3.60;78.50;;;;;;5037197;28;20426;-91
2022/01/05 01:41:10;;;;;;;12.75;2.75;;;3.50;78.50;;;;;;5037282;28;20052;-90
2022/01/05 01:43:37;;;;;;;16.75;3.45;;;3.50;78.50;;;;;;5037587;28;20521;-92
2022/01/05 01:46:06;;;;;;;15.30;2.70;;;3.50;78.50;;;;;;5037790;28;20051;-90
2022/01/05 01:48:34;;;;;;;10.48;2.75;;;3.50;78.50;;;;;;5037086;28;20077;-91
2022/01/05 01:51:01;;;;;;;17.83;2.85;;;3.50;78.50;;;;;;5037707;28;20049;-92
2022/01/05 01:53:28;;;;;;;23.38;3.72;;;3.50;78.50;;;;;;5037558;28;20037;-91
2022/01/05 01:55:58;;;;;;;12.05;2.65;;;3.50;78.50;;;;;;5037774;28;20052;-90
2022/01/05 01:58:30;;;;;;;21.00;3.38;;;3.50;78.50;;;;;;5037632;28;20494;-91
2022/01/05 02:00:57;;;;;;;15.70;3.25;;;3.50;78.50;;;;;;5038197;28;20057;-91
2022/01/05 02:03:25;;;;;;;18.50;3.55;;;3.40;78.50;;;;;;5037542;28;20425;-90
2022/01/05 02:05:52;;;;;;;11.57;2.75;;;3.40;78.50;;;;;;5037729;28;20147;-92
2022/01/05 02:08:19;;;;;;;11.88;2.80;;;3.40;78.60;;;;;;5041930;28;20041;-92
2022/01/05 02:10:49;;;;;;;13.63;2.75;;;3.40;78.60;;;;;;5037339;28;20051;-92
2022/01/05 02:13:17;;;;;;;16.02;3.40;;;3.40;78.60;;;;;;5039095;28;20041;-92
2022/01/05 02:15:44;;;;;;;14.00;3.00;;;3.40;78.60;;;;;;5038154;28;20088;-90
2022/01/05 02:21:02;;;;;;;19.55;3.22;;;3.40;78.60;;;;;;5041138;28;20059;-92
2022/01/05 02:23:29;;;;;;;13.57;2.55;;;3.40;78.60;;;;;;5038909;28;20041;-93
2022/01/05 02:25:56;;;;;;;18.52;2.80;;;3.40;78.60;;;;;;5040604;28;20045;-91
2022/01/05 02:28:23;;;;;;;13.13;2.63;;;3.40;78.60;;;;;;5041713;28;20051;-93
2022/01/05 02:30:54;;;;;;;15.05;2.88;;;3.40;78.60;;;;;;5038428;28;20054;-93
2022/01/05 02:33:22;;;;;;;16.65;2.70;;;3.40;78.60;;;;;;5038322;28;20053;-92
2022/01/05 02:35:49;;;;;;;13.68;2.28;;;3.40;78.70;;;;;;5040677;28;20048;-92
2022/01/05 02:38:21;;;;;;;19.05;3.70;;;3.40;78.70;;;;;;5040607;28;20490;-93
2022/01/05 02:40:49;;;;;;;12.02;3.05;;;3.30;78.70;;;;;;5039339;28;20055;-92
2022/01/05 02:43:16;;;;;;;13.70;2.75;;;3.40;78.70;;;;;;5040543;28;20044;-91
2022/01/05 02:45:43;;;;;;;15.75;3.20;;;3.40;78.70;;;;;;5039661;28;20045;-90
2022/01/05 02:48:11;;;;;;;12.95;2.90;;;3.40;78.70;;;;;;5036384;28;20049;-92
2022/01/05 02:50:38;;;;;;;10.57;2.47;;;3.40;78.70;;;;;;5039465;28;20493;-92
2022/01/05 02:53:05;;;;;;;9.93;2.47;;;3.40;78.80;;;;;;5040256;28;20046;-92
2022/01/05 02:55:32;;;;;;;14.20;2.75;;;3.40;78.70;;;;;;5040910;28;20421;-91
2022/01/05 02:57:59;;;;;;;12.00;2.95;;;3.40;78.80;;;;;;5023209;28;20524;-92
2022/01/05 03:00:26;;;;;;;14.52;2.80;;;3.40;78.80;;;;;;5033654;28;20102;-92
2022/01/05 03:02:53;;;;;;;11.40;3.13;;;3.40;78.80;;;;;;5040158;28;20041;-92
2022/01/05 03:05:20;;;;;;;13.98;3.03;;;3.30;78.80;;;;;;5037312;28;20045;-92
2022/01/05 03:07:47;;;;;;;14.55;3.35;;;3.40;78.80;;;;;;5038963;28;20041;-92
2022/01/05 03:10:15;;;;;;;16.50;2.97;;;3.30;78.80;;;;;;5038681;28;20041;-92
2022/01/05 03:12:44;;;;;;;14.70;3.22;;;3.30;78.80;;;;;;5038668;28;20049;-92
2022/01/05 03:15:11;;;;;;;11.48;2.20;;;3.30;78.80;;;;;;5036265;28;20046;-93
2022/01/05 03:17:39;;;;;;;16.88;2.95;;;3.30;78.80;;;;;;5040364;28;20049;-94
2022/01/05 03:20:08;;;;;;;12.80;2.90;;;3.30;78.80;;;;;;5039248;28;20046;-92
2022/01/05 03:22:36;;;;;;;11.80;2.17;;;3.30;78.80;;;;;;5040466;28;20042;-92
2022/01/05 03:25:04;;;;;;;13.52;3.05;;;3.30;78.80;;;;;;5038694;28;20055;-91
2022/01/05 03:27:32;;;;;;;12.73;2.60;;;3.30;78.80;;;;;;5038309;28;20501;-93
2022/01/05 03:29:59;;;;;;;12.15;2.40;;;3.30;78.80;;;;;;5039020;28;20064;-92
2022/01/05 03:32:34;;;;;;;10.52;2.50;;;3.30;78.80;;;;;;5038423;28;20055;-92
2022/01/05 03:35:00;;;;;;;10.10;2.30;;;3.30;78.80;;;;;;5041132;28;20045;-91
2022/01/05 03:37:27;;;;;;;11.05;2.63;;;3.30;78.80;;;;;;5039033;28;20045;-93
2022/01/05 03:39:55;;;;;;;15.98;2.70;;;3.30;78.80;;;;;;5038324;28;20046;-92
2022/01/05 03:42:21;;;;;;;13.88;3.10;;;3.30;78.80;;;;;;5038351;28;20080;-92
2022/01/05 03:44:48;;;;;;;12.05;2.47;;;3.30;78.80;;;;;;5038853;28;20409;-93
2022/01/05 03:47:15;;;;;;;13.30;2.10;;;3.30;78.80;;;;;;5039492;28;20049;-93
2022/01/05 03:49:42;;;;;;;13.82;2.40;;;3.30;78.80;;;;;;5038565;28;20038;-93
2022/01/05 03:52:09;;;;;;;14.85;2.45;;;3.30;78.70;;;;;;5040479;28;20055;-92
2022/01/05 03:54:36;;;;;;;9.45;2.50;;;3.20;78.80;;;;;;5038173;28;20052;-93
2022/01/05 03:57:04;;;;;;;12.70;2.15;;;3.20;78.70;;;;;;5040151;28;20049;-90
2022/01/05 03:59:31;;;;;;;11.88;2.30;;;3.30;78.70;;;;;;5038343;28;20478;-93
2022/01/05 04:01:58;;;;;;;14.85;2.72;;;3.20;78.70;;;;;;5039462;28;20053;-93
2022/01/05 04:04:25;;;;;;;13.98;2.90;;;3.30;78.80;;;;;;5040558;28;20041;-92
2022/01/05 04:06:52;;;;;;;12.38;2.45;;;3.20;78.70;;;;;;5039454;28;20543;-92
2022/01/05 04:09:19;;;;;;;12.82;2.40;;;3.20;78.80;;;;;;5039427;28;20052;-93
2022/01/05 04:11:46;;;;;;;9.50;2.28;;;3.30;78.80;;;;;;5038675;28;20053;-91
2022/01/05 04:14:13;;;;;;;9.02;2.20;;;3.20;78.70;;;;;;5037897;28;20049;-92
2022/01/05 04:16:40;;;;;;;10.75;2.38;;;3.20;78.80;;;;;;5040479;28;20052;-95
2022/01/05 04:19:07;;;;;;;12.13;2.20;;;3.20;78.70;;;;;;5038341;28;20041;-93
2022/01/05 04:21:34;;;;;;;10.10;1.95;;;3.20;78.80;;;;;;5037627;28;20057;-92
2022/01/05 04:24:01;;;;;;;11.50;2.00;;;3.20;78.80;;;;;;5038131;28;20140;-93
2022/01/05 04:26:28;;;;;;;16.40;2.85;;;3.20;78.80;;;;;;5040517;28;20049;-91
2022/01/05 04:28:55;;;;;;;12.63;2.38;;;3.20;78.80;;;;;;5040638;28;20048;-95
2022/01/05 04:31:22;;;;;;;10.98;2.63;;;3.20;78.80;;;;;;5040643;28;20053;-93
2022/01/05 04:33:49;;;;;;;12.05;2.35;;;3.20;78.70;;;;;;5038565;28;20145;-92
2022/01/05 04:36:36;;;;;;;9.48;2.13;;;3.20;78.80;;;;;;5035701;28;20052;-92
2022/01/05 04:39:04;;;;;;;15.70;2.50;;;3.10;78.80;;;;;;5039828;28;20045;-89
2022/01/05 04:41:31;;;;;;;14.90;2.80;;;3.10;78.80;;;;;;5040420;28;20045;-94
2022/01/05 04:43:58;;;;;;;12.68;2.35;;;3.10;78.80;;;;;;5041104;28;20045;-92
2022/01/05 04:46:24;;;;;;;9.88;2.03;;;3.10;78.80;;;;;;5040902;28;20048;-91
2022/01/05 04:48:52;;;;;;;15.68;3.17;;;3.10;78.80;;;;;;5039090;28;20053;-92
2022/01/05 04:51:19;;;;;;;10.88;2.72;;;3.10;78.80;;;;;;5038200;28;20057;-92
2022/01/05 04:53:46;;;;;;;18.67;2.80;;;3.10;78.90;;;;;;5044902;28;20046;-92
2022/01/05 04:56:13;;;;;;;13.40;2.08;;;3.10;78.90;;;;;;5046714;28;20045;-92
2022/01/05 04:58:40;;;;;;;14.82;2.60;;;3.10;78.90;;;;;;5041248;28;20050;-92
2022/01/05 05:01:07;;;;;;;12.07;2.97;;;3.00;78.90;;;;;;5038237;28;20037;-93
2022/01/05 05:03:34;;;;;;;12.27;2.28;;;3.00;79.00;;;;;;5038121;28;20050;-91
2022/01/05 05:06:01;;;;;;;9.20;1.98;;;3.00;79.00;;;;;;5040100;28;20049;-92
2022/01/05 05:08:29;;;;;;;12.23;1.95;;;3.00;79.00;;;;;;5040823;28;20201;-92
2022/01/05 05:10:56;;;;;;;11.45;2.38;;;3.00;79.00;;;;;;5039155;28;20502;-92
2022/01/05 05:13:23;;;;;;;11.90;2.92;;;3.00;79.10;;;;;;5042473;28;20045;-92
2022/01/05 05:15:50;;;;;;;13.45;2.00;;;3.00;79.10;;;;;;5039941;28;20063;-92
2022/01/05 05:18:17;;;;;;;13.35;2.35;;;3.00;79.10;;;;;;5038327;28;20059;-92
2022/01/05 05:20:44;;;;;;;10.50;2.13;;;3.00;79.10;;;;;;5038233;28;20045;-92
2022/01/05 05:23:11;;;;;;;12.05;2.30;;;3.00;79.20;;;;;;5038739;28;20052;-91
2022/01/05 05:25:38;;;;;;;14.27;2.80;;;3.00;79.20;;;;;;5038721;28;20051;-91
2022/01/05 05:28:06;;;;;;;13.13;2.35;;;3.00;79.20;;;;;;5038910;28;20054;-92
2022/01/05 05:30:34;;;;;;;11.13;2.13;;;3.00;79.20;;;;;;5037981;28;20050;-92
2022/01/05 05:33:05;;;;;;;13.23;2.65;;;3.00;79.20;;;;;;5038085;28;20401;-90
2022/01/05 05:35:32;;;;;;;12.63;2.38;;;3.00;79.30;;;;;;5040889;28;20052;-92
2022/01/05 05:38:00;;;;;;;14.68;2.08;;;3.00;79.20;;;;;;5038350;28;20049;-91
2022/01/05 05:40:27;;;;;;;11.20;2.22;;;3.00;79.30;;;;;;5039724;28;20041;-91
2022/01/05 05:42:54;;;;;;;18.02;2.58;;;3.00;79.30;;;;;;5039587;28;20046;-93
2022/01/05 05:45:21;;;;;;;12.65;2.30;;;3.00;79.30;;;;;;5039956;28;20056;-91
2022/01/05 05:47:48;;;;;;;15.23;2.47;;;3.00;79.30;;;;;;5042776;28;20045;-91
2022/01/05 05:50:16;;;;;;;17.50;2.75;;;3.00;79.30;;;;;;5042060;28;20055;-91
2022/01/05 05:52:42;;;;;;;10.48;2.13;;;3.10;79.30;;;;;;5042271;28;20071;-91
2022/01/05 05:55:10;;;;;;;13.20;2.20;;;3.10;79.30;;;;;;5041792;28;20046;-92
2022/01/05 05:57:42;;;;;;;13.68;2.30;;;3.00;79.30;;;;;;5042008;28;20128;-93
2022/01/05 06:00:10;;;;;;;9.98;2.17;;;3.10;79.30;;;;;;5042943;28;20053;-92
2022/01/05 06:02:37;;;;;;;13.00;2.83;;;3.10;79.30;;;;;;5043526;28;20045;-93
2022/01/05 06:05:05;;;;;;;10.82;2.15;;;3.10;79.30;;;;;;5043835;28;20037;-91
2022/01/05 06:07:32;;;;;;;12.57;2.85;;;3.10;79.30;;;;;;5042431;28;20558;-93
2022/01/05 06:10:00;;;;;;;12.48;2.80;;;3.10;79.30;;;;;;5027321;28;20072;-92
2022/01/05 06:12:27;;;;;;;12.20;2.40;;;3.10;79.30;;;;;;5036818;28;20059;-92
2022/01/05 06:14:55;;;;;;;13.10;2.67;;;3.10;79.30;;;;;;5042163;28;20048;-93
2022/01/05 06:17:22;;;;;;;16.27;2.58;;;3.10;79.30;;;;;;5041586;28;20136;-93
2022/01/05 06:19:49;;;;;;;10.30;2.30;;;3.10;79.30;;;;;;5042153;28;20041;-91
2022/01/05 06:22:17;;;;;;;12.57;2.30;;;3.10;79.30;;;;;;5042604;28;20045;-91
2022/01/05 06:24:48;;;;;;;16.10;2.70;;;3.10;79.30;;;;;;5040173;28;20052;-91
2022/01/05 06:27:15;;;;;;;14.77;2.33;;;3.10;79.30;;;;;;5041437;28;20077;-91
2022/01/05 06:29:42;;;;;;;14.30;2.47;;;3.00;79.30;;;;;;5040536;28;20041;-92
2022/01/05 06:32:09;;;;;;;13.98;2.40;;;3.10;79.20;;;;;;5039853;28;20052;-92
2022/01/05 06:34:36;;;;;;;17.38;2.80;;;3.00;79.20;;;;;;5040302;28;20038;-90
2022/01/05 06:37:05;;;;;;;15.25;2.53;;;3.00;79.20;;;;;;5040272;28;20076;-90
2022/01/05 06:39:32;;;;;;;11.00;2.30;;;3.10;79.20;;;;;;5039540;28;20049;-90
2022/01/05 06:41:59;;;;;;;13.25;3.00;;;3.00;79.20;;;;;;5039771;28;20064;-90
2022/01/05 06:44:26;;;;;;;9.73;2.50;;;3.00;79.20;;;;;;5042109;28;20045;-92
2022/01/05 06:46:53;;;;;;;17.95;2.72;;;3.00;79.20;;;;;;5041051;28;20053;-91
2022/01/05 06:49:23;;;;;;;11.20;2.00;;;3.00;79.10;;;;;;5039313;28;20038;-91
2022/01/05 06:51:51;;;;;;;11.70;2.67;;;3.00;79.20;;;;;;5039164;28;20053;-91
2022/01/05 06:54:18;;;;;;;13.25;2.70;;;3.00;79.10;;;;;;5039148;28;20113;-90
2022/01/05 06:56:46;;;;;;;7.43;1.95;;;3.00;79.10;;;;;;5039647;28;20045;-91
2022/01/05 06:59:15;;;;;;;10.40;2.15;;;3.00;79.10;;;;;;5040404;28;20041;-91
2022/01/05 07:01:41;;;;;;;8.95;2.10;;;3.00;79.10;;;;;;5039632;28;20050;-90
2022/01/05 07:04:09;;;;;;;13.98;2.70;;;3.00;79.10;;;;;;5039652;28;20056;-91
2022/01/05 07:06:36;;;;;;;13.38;2.25;;;3.00;79.10;;;;;;5038548;28;20089;-91
2022/01/05 07:09:03;;;;;;;10.55;2.40;;;3.00;79.10;;;;;;5039376;28;20045;-91
2022/01/05 07:11:31;;;;;;;9.82;2.25;;;3.00;79.10;;;;;;5038399;28;20045;-91
2022/01/05 07:13:59;;;;;;;11.70;2.45;;;3.00;79.10;;;;;;5037954;28;20531;-91
2022/01/05 07:16:26;;;;;;;14.52;2.50;;;3.00;79.10;;;;;;5038744;28;20429;-90
2022/01/05 07:18:53;;;;;;;16.15;2.80;;;3.00;79.10;;;;;;5036611;28;20458;-91
2022/01/05 07:21:20;;;;;;;12.77;2.58;;;3.00;79.20;;;;;;5036785;28;20060;-90
2022/01/05 07:23:47;;;;;;;16.30;2.83;;;3.00;79.20;;;;;;5036462;28;20038;-92
2022/01/05 07:26:14;;;;;;;14.52;2.55;;;2.90;79.20;;;;;;5038267;28;20055;-90
2022/01/05 07:28:42;;;;;;;15.55;2.80;;;3.00;79.20;;;;;;5038546;28;20099;-90
2022/01/05 07:31:12;;;;;;;14.38;2.63;;;3.00;79.20;;;;;;5037799;28;20124;-92
2022/01/05 07:33:38;;;;;;;16.40;2.28;;;3.00;79.20;;;;;;5035485;28;20045;-91
2022/01/05 07:36:06;;;;;;;11.82;2.58;;;3.00;79.20;;;;;;5037982;28;20059;-91
2022/01/05 07:38:33;;;;;;;11.25;2.53;;;3.00;79.20;;;;;;5036552;28;20057;-93
2022/01/05 07:41:01;;;;;;;17.88;3.03;;;3.00;79.20;;;;;;5036888;28;20041;-93
2022/01/05 07:43:28;;;;;;;14.10;3.22;;;3.00;79.20;;;;;;5036445;28;20494;-90
2022/01/05 07:45:55;;;;;;;14.48;3.30;;;3.00;79.20;;;;;;5036340;28;20041;-92
2022/01/05 07:48:22;;;;;;;15.88;2.65;;;3.00;79.20;;;;;;5035476;28;20081;-91
2022/01/05 07:50:49;;;;;;;14.18;2.40;;;3.00;79.30;;;;;;5035849;28;20050;-90
2022/01/05 07:53:16;;;;;;;11.73;2.65;;;3.00;79.30;;;;;;5035201;28;20056;-91
2022/01/05 07:55:43;;;;;;;12.60;2.25;;;3.00;79.30;;;;;;5035033;28;20042;-92
2022/01/05 07:58:10;;;;;;;18.33;2.45;;;3.00;79.40;;;;;;5036776;28;20045;-91
2022/01/05 08:00:38;;;;;;;13.90;2.72;;;3.00;79.30;;;;;;5035252;28;20045;-93
2022/01/05 08:03:05;;;;;;;14.32;2.78;;;3.00;79.40;;;;;;5037900;28;20099;-92
2022/01/05 08:05:32;;;;;;;13.15;2.72;;;3.00;79.40;;;;;;5035743;28;20113;-93
2022/01/05 08:08:01;;;;;;;11.60;2.53;;;3.00;79.40;;;;;;5035565;28;20136;-91
2022/01/05 08:10:28;;;;;;;13.38;2.05;;;3.00;79.40;;;;;;5039568;28;20509;-91
2022/01/05 08:12:55;;;;;;;10.32;2.70;;;3.00;79.40;;;;;;5035711;28;20049;-92
2022/01/05 08:15:22;;;;;;;13.57;2.70;;;2.90;79.40;;;;;;5034931;28;20042;-92
2022/01/05 08:17:49;;;;;;;14.85;2.47;;;3.00;79.50;;;;;;5036504;28;20049;-91
2022/01/05 08:20:16;;;;;;;13.93;2.92;;;2.90;79.50;;;;;;5038079;28;20045;-92
2022/01/05 08:22:45;;;;;;;11.30;2.10;;;2.90;79.50;;;;;;5037175;28;20056;-92
2022/01/05 08:25:18;;;;;;;16.10;2.58;;;3.00;79.50;;;;;;5035066;28;20052;-92
2022/01/05 08:27:48;;;;;;;18.08;3.13;;;3.00;79.50;;;;;;5035839;28;20060;-91
2022/01/05 08:30:25;;;;;;;15.05;2.80;;;3.00;79.50;;;;;;5033613;28;20045;-93
2022/01/05 08:32:53;;;;;;;12.30;2.60;;;3.00;79.60;;;;;;5035578;28;20585;-91
2022/01/05 08:35:23;;;;;;;12.95;2.70;;;3.00;79.60;;;;;;5035886;28;20106;-93
2022/01/05 08:37:51;;;;;;;13.18;2.90;;;3.00;79.60;;;;;;5036071;28;20045;-89
2022/01/05 08:40:20;;;;;;;12.45;2.63;;;3.00;79.60;;;;;;5032993;28;20052;-87
2022/01/05 08:42:48;;;;;;;19.83;3.00;;;3.00;79.60;;;;;;5032494;28;20483;-87
2022/01/05 08:45:16;;;;;;;13.30;2.90;;;3.00;79.70;;;;;;5031446;28;20521;-89
2022/01/05 08:47:47;;;;;;;16.20;3.15;;;3.00;79.70;;;;;;5032682;28;20037;-87
2022/01/05 08:50:16;;;;;;;15.25;2.95;;;3.00;79.70;;;;;;5032662;28;20073;-86
2022/01/05 08:52:45;;;;;;;11.93;2.92;;;3.00;79.70;;;;;;5032032;28;20049;-87
2022/01/05 08:55:14;;;;;;;13.13;2.83;;;3.10;79.70;;;;;;5032835;28;20116;-86
2022/01/05 08:57:42;;;;;;;16.75;2.67;;;3.10;79.70;;;;;;5031417;28;20054;-86
2022/01/05 09:00:11;;;;;;;18.90;3.55;;;3.00;79.70;;;;;;5033146;28;20041;-88
2022/01/05 09:02:38;;;;;;;15.57;2.95;;;3.00;79.80;;;;;;5032430;28;20532;-87
2022/01/05 09:05:06;;;;;;;17.45;3.15;;;3.10;79.80;;;;;;5032588;28;20037;-86
2022/01/05 09:07:34;;;;;;;14.48;3.00;;;3.10;79.80;;;;;;5031710;28;20049;-86
2022/01/05 09:10:04;;;;;;;20.42;3.83;;;3.10;79.90;;;;;;5032217;28;20041;-87
2022/01/05 09:12:32;;;;;;;15.13;2.90;;;3.10;79.90;;;;;;5027577;28;20502;-87
2022/01/05 09:14:59;;;;;;;11.18;2.67;;;3.20;79.90;;;;;;5031738;28;20050;-87
2022/01/05 09:17:27;;;;;;;15.20;3.30;;;3.20;79.90;;;;;;5032244;28;20050;-86
2022/01/05 09:19:54;;;;;;;14.13;3.33;;;3.20;79.90;;;;;;5034263;28;20520;-87
2022/01/05 09:22:22;;;;;;;13.02;2.90;;;3.30;80.00;;;;;;5035827;28;20049;-85
2022/01/05 09:24:50;;;;;;;17.42;2.92;;;3.30;80.00;;;;;;5035934;28;20059;-85
2022/01/05 09:27:17;;;;;;;16.60;3.03;;;3.30;80.00;;;;;;5035162;28;20520;-86
2022/01/05 09:29:45;;;;;;;16.80;3.78;;;3.30;80.00;;;;;;5035415;28;20052;-86
2022/01/05 09:32:12;;;;;;;17.30;2.95;;;3.40;80.00;;;;;;5035637;28;20422;-87
2022/01/05 09:34:41;;;;;;;15.07;3.15;;;3.40;80.00;;;;;;5035763;28;20045;-86
2022/01/05 09:37:21;;;;;;;16.13;2.85;;;3.40;80.10;;;;;;5035609;28;20052;-86
2022/01/05 09:42:35;;;;;;;18.38;3.28;;;3.40;80.10;;;;;;5031119;28;20413;-86
2022/01/05 09:45:14;;;;;;;13.50;3.03;;;3.40;80.20;;;;;;5034695;28;20084;-86
2022/01/05 09:47:59;;;;;;;14.52;3.38;;;3.50;80.20;;;;;;5035435;28;20509;-87
2022/01/05 09:50:27;;;;;;;13.73;3.00;;;3.50;80.20;;;;;;5035226;28;20046;-87
2022/01/05 09:52:55;;;;;;;14.40;3.25;;;3.50;80.20;;;;;;5035649;28;20057;-86
2022/01/05 09:55:23;;;;;;;20.20;3.40;;;3.60;80.30;;;;;;5035258;28;20041;-87
2022/01/05 09:57:51;;;;;;;17.45;3.80;;;3.60;80.30;;;;;;5035160;28;20061;-86
2022/01/05 10:00:20;;;;;;;17.45;2.80;;;3.70;80.40;;;;;;5033080;28;20037;-86
2022/01/05 10:02:49;;;;;;;15.45;3.13;;;3.70;80.40;;;;;;5035342;28;20445;-86
2022/01/05 10:05:17;;;;;;;17.40;3.13;;;3.90;80.40;;;;;;5034876;28;20038;-86
2022/01/05 10:07:45;;;;;;;15.27;3.40;;;4.00;80.30;;;;;;5035111;28;20057;-86
2022/01/05 10:10:12;;;;;;;16.00;2.97;;;4.10;80.30;;;;;;5034776;28;20038;-86
2022/01/05 10:12:39;;;;;;;16.20;3.25;;;4.30;80.20;;;;;;5033823;28;20048;-87
2022/01/05 10:15:13;;;;;;;14.82;2.97;;;4.40;80.10;;;;;;5034132;28;20053;-86
2022/01/05 10:17:41;;;;;;;19.60;3.05;;;4.60;79.90;;;;;;5035442;28;20435;-86
2022/01/05 10:20:11;;;;;;;17.25;2.53;;;4.80;79.70;;;;;;5035271;28;20548;-86
2022/01/05 10:22:43;;;;;;;19.52;3.47;;;4.90;79.50;;;;;;5034989;28;20046;-86
2022/01/05 10:25:22;;;;;;;18.85;3.03;;;5.10;79.20;;;;;;5035329;28;20056;-86
2022/01/05 10:27:56;;;;;;;15.23;2.67;;;5.20;79.00;;;;;;5034184;28;20050;-85
2022/01/05 10:30:40;;;;;;;12.70;2.25;;;5.40;78.70;;;;;;5029711;28;20050;-85
2022/01/05 10:33:08;;;;;;;18.25;3.20;;;5.60;78.50;;;;;;5034475;28;20049;-85
2022/01/05 10:35:35;;;;;;;15.45;3.10;;;5.70;78.20;;;;;;5035149;28;20053;-85
2022/01/05 10:38:05;;;;;;;14.52;2.88;;;5.90;78.00;;;;;;5034592;28;20045;-85
2022/01/05 10:40:34;;;;;;;17.08;3.28;;;6.00;77.70;;;;;;5035057;28;20041;-85
2022/01/05 10:43:08;;;;;;;14.63;2.63;;;6.10;77.50;;;;;;5019702;28;20242;-85
2022/01/05 10:45:45;;;;;;;17.75;3.42;;;6.20;77.20;;;;;;5030962;28;20092;-85
2022/01/05 10:48:18;;;;;;;15.32;3.10;;;6.30;77.00;;;;;;5032058;28;20405;-85
2022/01/05 10:50:47;;;;;;;15.63;3.03;;;6.40;76.70;;;;;;5034637;28;20041;-85
2022/01/05 10:53:20;;;;;;;16.60;3.17;;;6.60;76.50;;;;;;5034331;28;20316;-85
2022/01/05 10:55:47;;;;;;;15.65;3.35;;;6.60;76.20;;;;;;5034739;28;20044;-85
2022/01/05 10:58:16;;;;;;;17.42;3.17;;;6.70;76.00;;;;;;5034776;28;20051;-85
2022/01/05 11:00:50;;;;;;;16.33;3.67;;;6.90;75.90;;;;;;5034431;28;20045;-85
2022/01/05 11:03:25;;;;;;;19.63;2.85;;;6.90;75.70;;;;;;5032584;28;20055;-85
2022/01/05 11:06:13;;;;;;;17.42;3.35;;;7.00;75.40;;;;;;5033906;28;20053;-84
2022/01/05 11:08:46;;;;;;;13.75;2.88;;;7.10;75.20;;;;;;5034325;28;20056;-84
2022/01/05 11:11:35;;;;;;;15.95;2.65;;;7.20;75.10;;;;;;5034255;28;20049;-85
2022/01/05 11:14:08;;;;;;;18.20;3.15;;;7.30;74.90;;;;;;5034286;28;20041;-85
2022/01/05 11:16:37;;;;;;;14.87;2.63;;;7.30;74.80;;;;;;5034311;28;20041;-85
2022/01/05 11:19:21;;;;;;;17.05;3.00;;;7.40;74.60;;;;;;5034253;28;20139;-85
2022/01/05 11:22:16;;;;;;;12.40;2.75;;;7.40;74.40;;;;;;5033875;28;20521;-85
2022/01/05 11:24:51;;;;;;;10.05;2.40;;;7.40;74.30;;;;;;5047197;28;20075;-85
2022/01/05 11:27:28;;;;;;;13.23;3.00;;;7.40;74.20;;;;;;5032327;28;20045;-85
2022/01/05 11:29:56;;;;;;;17.25;3.35;;;7.40;74.10;;;;;;5032587;28;20046;-85
2022/01/05 11:32:27;;;;;;;14.55;3.05;;;7.40;74.10;;;;;;5033924;28;20045;-85
2022/01/05 11:34:54;;;;;;;12.15;3.03;;;7.40;74.10;;;;;;5033611;28;20057;-85
2022/01/05 11:37:21;;;;;;;18.90;3.75;;;7.40;74.00;;;;;;5033934;28;20049;-85
2022/01/05 11:39:53;;;;;;;16.50;2.97;;;7.40;74.10;;;;;;5032697;28;20053;-85
2022/01/05 11:42:31;;;;;;;15.38;3.22;;;7.40;74.10;;;;;;5031797;28;20144;-85
2022/01/05 11:44:58;;;;;;;14.75;3.17;;;7.40;74.10;;;;;;5035388;28;20054;-84
2022/01/05 11:47:30;;;;;;;17.88;2.83;;;7.40;74.20;;;;;;5033704;28;20037;-85
2022/01/05 11:50:13;;;;;;;14.52;2.63;;;7.40;74.30;;;;;;5033284;28;20045;-85
2022/01/05 11:53:07;;;;;;;15.95;3.03;;;7.30;74.30;;;;;;5033544;28;20045;-85
2022/01/05 11:55:58;;;;;;;15.43;3.40;;;7.30;74.40;;;;;;5033500;28;20056;-85
2022/01/05 11:58:27;;;;;;;11.63;2.75;;;7.30;74.40;;;;;;5033524;28;20048;-85
2022/01/05 12:01:13;;;;;;;11.48;2.85;;;7.20;74.50;;;;;;5033589;28;20053;-85
2022/01/05 12:04:05;;;;;;;13.75;2.78;;;7.20;74.50;;;;;;5030415;28;20068;-85
2022/01/05 12:07:01;;;;;;;15.18;2.55;;;7.20;74.60;;;;;;5029627;28;20538;-85
2022/01/05 12:09:30;;;;;;;13.15;2.63;;;7.20;74.70;;;;;;5028534;28;20046;-85
2022/01/05 12:12:20;;;;;;;18.65;2.97;;;7.10;74.80;;;;;;5034841;28;20418;-85
2022/01/05 12:14:48;;;;;;;11.60;2.55;;;7.10;74.90;;;;;;5033237;28;20041;-85
2022/01/05 12:17:18;;;;;;;10.45;2.38;;;7.10;75.00;;;;;;5033216;28;20399;-85
2022/01/05 12:19:48;;;;;;;12.82;2.63;;;7.10;75.10;;;;;;5032686;28;20055;-85
2022/01/05 12:22:15;;;;;;;18.30;3.28;;;7.10;75.10;;;;;;5033252;28;20445;-85
2022/01/05 12:25:03;;;;;;;12.23;2.58;;;7.10;75.20;;;;;;5032758;28;20054;-85
2022/01/05 12:27:38;;;;;;;12.40;3.03;;;7.00;75.20;;;;;;5028948;28;20053;-85
2022/01/05 12:30:16;;;;;;;11.00;3.05;;;7.00;75.20;;;;;;5033493;28;20053;-85
2022/01/05 12:32:46;;;;;;;12.00;2.95;;;7.00;75.30;;;;;;5032936;28;20049;-85
2022/01/05 12:35:21;;;;;;;12.23;2.13;;;7.00;75.30;;;;;;5032542;28;20425;-85
2022/01/05 12:37:55;;;;;;;10.63;2.25;;;7.00;75.40;;;;;;5031825;28;20418;-85
2022/01/05 12:40:29;;;;;;;14.02;2.88;;;7.00;75.40;;;;;;5033075;28;20053;-85
2022/01/05 12:43:08;;;;;;;10.85;2.47;;;7.00;75.40;;;;;;5033096;28;20456;-85
2022/01/05 12:45:55;;;;;;;13.60;2.72;;;7.00;75.40;;;;;;5029080;28;20132;-85
2022/01/05 12:48:39;;;;;;;13.05;2.20;;;7.00;75.40;;;;;;5031789;28;20049;-85
2022/01/05 12:51:14;;;;;;;11.07;2.15;;;7.00;75.50;;;;;;5033641;28;20060;-85
2022/01/05 12:54:02;;;;;;;12.88;2.30;;;7.00;75.50;;;;;;5033000;28;20051;-85
2022/01/05 12:56:33;;;;;;;12.60;2.55;;;7.00;75.50;;;;;;5035682;28;20037;-86
2022/01/05 12:59:02;;;;;;;14.27;2.75;;;6.90;75.50;;;;;;5036781;28;20051;-85
2022/01/05 13:01:30;;;;;;;12.52;2.65;;;6.90;75.50;;;;;;5036879;28;20045;-85
2022/01/05 13:03:59;;;;;;;12.40;2.45;;;6.90;75.60;;;;;;5036576;28;20045;-85